FDB539 OMDB-VNKT
Flight info
| Callsign | FDB539 |
|---|---|
| Flight time | N/A |
| Altitude | 35000 |
| Route | ANVIX L223 KIPOK L313 TARDI N629 GIDAN N881 RASKI L639 LAXOM/N0467F370 L639 BPL G590 DOMET DCT BBN G590 SMR SMR |
| Aircraft | B38M/M-SDE1FGHILORVWXY/HB1 |
Departure
| Time | N/A |
|---|---|
| Airport | Dubai International Airport (OMDB) |
Arrival
| Time | 2026-05-08 09:13 |
|---|---|
| Airport | Tribhuvan International Airport (VNKT) |
| Time | Latitude | Longitude | Altitude | Speed | Heading |
|---|---|---|---|---|---|
| 2026-05-08 08:49 | 27.03082 | 84.84621 | 29623 ft | 499 kts | 71° |
| 2026-05-08 08:49 | 27.03877 | 84.88310 | 28367 ft | 495 kts | 84° |
| 2026-05-08 08:49 | 27.03935 | 84.92067 | 26916 ft | 495 kts | 97° |
| 2026-05-08 08:50 | 27.03137 | 84.95947 | 25426 ft | 498 kts | 112° |
| 2026-05-08 08:50 | 27.01430 | 84.99318 | 24582 ft | 496 kts | 131° |
| 2026-05-08 08:50 | 26.98894 | 85.01954 | 24355 ft | 476 kts | 148° |
| 2026-05-08 08:50 | 26.95999 | 85.03562 | 24132 ft | 456 kts | 165° |
| 2026-05-08 08:51 | 26.92963 | 85.04144 | 23929 ft | 449 kts | 181° |
| 2026-05-08 08:51 | 26.89856 | 85.03739 | 23700 ft | 452 kts | 197° |
| 2026-05-08 08:51 | 26.86960 | 85.02507 | 22929 ft | 443 kts | 210° |
| 2026-05-08 08:51 | 26.84550 | 85.00646 | 21580 ft | 450 kts | 224° |
| 2026-05-08 08:52 | 26.82392 | 84.98266 | 20764 ft | 449 kts | 228° |
| 2026-05-08 08:52 | 26.80478 | 84.95922 | 20558 ft | 433 kts | 231° |
| 2026-05-08 08:52 | 26.78490 | 84.93417 | 19727 ft | 432 kts | 226° |
| 2026-05-08 08:52 | 26.76147 | 84.91294 | 19240 ft | 425 kts | 219° |
| 2026-05-08 08:53 | 26.73937 | 84.89415 | 20171 ft | 376 kts | 220° |
| 2026-05-08 08:53 | 26.71875 | 84.87572 | 19072 ft | 384 kts | 227° |
| 2026-05-08 08:53 | 26.70396 | 84.85126 | 18417 ft | 380 kts | 250° |
| 2026-05-08 08:53 | 26.69972 | 84.82248 | 17839 ft | 375 kts | 274° |
| 2026-05-08 08:54 | 26.70632 | 84.79493 | 17258 ft | 374 kts | 297° |
| 2026-05-08 08:54 | 26.72275 | 84.77258 | 16667 ft | 376 kts | 321° |
| 2026-05-08 08:54 | 26.74559 | 84.75754 | 16058 ft | 377 kts | 328° |
| 2026-05-08 08:54 | 26.76513 | 84.73891 | 15842 ft | 362 kts | 306° |
| 2026-05-08 08:55 | 26.78108 | 84.71715 | 15979 ft | 360 kts | 316° |
| 2026-05-08 08:55 | 26.80229 | 84.70263 | 15522 ft | 362 kts | 340° |
| 2026-05-08 08:55 | 26.82699 | 84.69940 | 14976 ft | 367 kts | 6° |
| 2026-05-08 08:55 | 26.85204 | 84.70619 | 14898 ft | 378 kts | 12° |
| 2026-05-08 08:56 | 26.87794 | 84.71398 | 14886 ft | 395 kts | 18° |
| 2026-05-08 08:56 | 26.90305 | 84.72841 | 14892 ft | 404 kts | 35° |
| 2026-05-08 08:56 | 26.92452 | 84.74906 | 14907 ft | 409 kts | 40° |
| 2026-05-08 08:56 | 26.94607 | 84.77000 | 14927 ft | 410 kts | 40° |
| 2026-05-08 08:57 | 26.96758 | 84.79086 | 14928 ft | 410 kts | 40° |
| 2026-05-08 08:57 | 26.98914 | 84.81179 | 14914 ft | 410 kts | 40° |
| 2026-05-08 08:57 | 27.01040 | 84.83245 | 14925 ft | 410 kts | 40° |
| 2026-05-08 08:57 | 27.03196 | 84.85341 | 14931 ft | 410 kts | 40° |
| 2026-05-08 08:58 | 27.05348 | 84.87435 | 14915 ft | 409 kts | 40° |
| 2026-05-08 08:58 | 27.07493 | 84.89523 | 14941 ft | 409 kts | 40° |
| 2026-05-08 08:58 | 27.09646 | 84.91620 | 14951 ft | 409 kts | 40° |
| 2026-05-08 08:58 | 27.11795 | 84.93714 | 14933 ft | 409 kts | 40° |
| 2026-05-08 08:59 | 27.13905 | 84.95775 | 14963 ft | 393 kts | 40° |
| 2026-05-08 08:59 | 27.15884 | 84.97702 | 14961 ft | 375 kts | 40° |
| 2026-05-08 08:59 | 27.17620 | 84.99883 | 14776 ft | 364 kts | 52° |
| 2026-05-08 08:59 | 27.19128 | 85.02095 | 14624 ft | 353 kts | 51° |
| 2026-05-08 09:00 | 27.20617 | 85.04253 | 14412 ft | 343 kts | 51° |
| 2026-05-08 09:00 | 27.22066 | 85.06345 | 14178 ft | 335 kts | 51° |
| 2026-05-08 09:00 | 27.23483 | 85.08389 | 13963 ft | 327 kts | 51° |
| 2026-05-08 09:00 | 27.24863 | 85.10378 | 13644 ft | 323 kts | 52° |
| 2026-05-08 09:01 | 27.26237 | 85.12359 | 13358 ft | 316 kts | 52° |
| 2026-05-08 09:01 | 27.27576 | 85.14291 | 13128 ft | 310 kts | 52° |
| 2026-05-08 09:01 | 27.28883 | 85.16176 | 12918 ft | 310 kts | 52° |
| 2026-05-08 09:01 | 27.30373 | 85.17930 | 12681 ft | 311 kts | 36° |
| 2026-05-08 09:02 | 27.32256 | 85.19099 | 12536 ft | 310 kts | 22° |
| 2026-05-08 09:02 | 27.34292 | 85.19914 | 12292 ft | 311 kts | 17° |
| 2026-05-08 09:02 | 27.36096 | 85.20454 | 12064 ft | 310 kts | 12° |
| 2026-05-08 09:02 | 27.38191 | 85.20818 | 11836 ft | 308 kts | 5° |
| 2026-05-08 09:03 | 27.40446 | 85.20890 | 11586 ft | 307 kts | 360° |
| 2026-05-08 09:03 | 27.42583 | 85.20881 | 11351 ft | 306 kts | 0° |
| 2026-05-08 09:03 | 27.44704 | 85.20904 | 11145 ft | 305 kts | 4° |
| 2026-05-08 09:03 | 27.46808 | 85.21200 | 10924 ft | 303 kts | 13° |
| 2026-05-08 09:04 | 27.48829 | 85.21835 | 10702 ft | 297 kts | 18° |
| 2026-05-08 09:04 | 27.50781 | 85.22489 | 10504 ft | 289 kts | 18° |
| 2026-05-08 09:04 | 27.52686 | 85.23121 | 10324 ft | 282 kts | 19° |
| 2026-05-08 09:04 | 27.54481 | 85.23935 | 10080 ft | 274 kts | 29° |
| 2026-05-08 09:05 | 27.56049 | 85.25043 | 9915 ft | 261 kts | 39° |
| 2026-05-08 09:05 | 27.57368 | 85.26394 | 9732 ft | 251 kts | 49° |
| 2026-05-08 09:05 | 27.58448 | 85.27901 | 9615 ft | 244 kts | 57° |
| 2026-05-08 09:05 | 27.59326 | 85.29548 | 9364 ft | 240 kts | 65° |
| 2026-05-08 09:06 | 27.59964 | 85.31265 | 9192 ft | 241 kts | 72° |
| 2026-05-08 09:06 | 27.60521 | 85.33024 | 9118 ft | 232 kts | 71° |
| 2026-05-08 09:06 | 27.61062 | 85.34712 | 8960 ft | 225 kts | 71° |
| 2026-05-08 09:06 | 27.61590 | 85.36343 | 8755 ft | 218 kts | 71° |
| 2026-05-08 09:07 | 27.62109 | 85.37907 | 8583 ft | 206 kts | 68° |
| 2026-05-08 09:07 | 27.62757 | 85.39326 | 8404 ft | 204 kts | 60° |
| 2026-05-08 09:07 | 27.63601 | 85.40610 | 8209 ft | 202 kts | 50° |
| 2026-05-08 09:07 | 27.64525 | 85.41747 | 8072 ft | 190 kts | 49° |
| 2026-05-08 09:08 | 27.65398 | 85.42812 | 7936 ft | 183 kts | 49° |
| 2026-05-08 09:08 | 27.66250 | 85.43853 | 7844 ft | 183 kts | 49° |
| 2026-05-08 09:08 | 27.67111 | 85.44907 | 7720 ft | 183 kts | 49° |
| 2026-05-08 09:08 | 27.67998 | 85.45938 | 7614 ft | 184 kts | 42° |
| 2026-05-08 09:09 | 27.69047 | 85.46768 | 7442 ft | 181 kts | 27° |
| 2026-05-08 09:09 | 27.70189 | 85.47209 | 7356 ft | 169 kts | 11° |
| 2026-05-08 09:09 | 27.71354 | 85.47272 | 7266 ft | 168 kts | 355° |
| 2026-05-08 09:09 | 27.72470 | 85.46965 | 7042 ft | 167 kts | 338° |
| 2026-05-08 09:10 | 27.73479 | 85.46311 | 6767 ft | 165 kts | 321° |
| 2026-05-08 09:10 | 27.74276 | 85.45385 | 6511 ft | 163 kts | 305° |
| 2026-05-08 09:10 | 27.74816 | 85.44290 | 6228 ft | 163 kts | 290° |
| 2026-05-08 09:10 | 27.75069 | 85.43038 | 5962 ft | 165 kts | 272° |
| 2026-05-08 09:11 | 27.75040 | 85.41750 | 5601 ft | 165 kts | 257° |
| 2026-05-08 09:11 | 27.74715 | 85.40536 | 5367 ft | 159 kts | 243° |
| 2026-05-08 09:11 | 27.74149 | 85.39488 | 5250 ft | 154 kts | 233° |
| 2026-05-08 09:11 | 27.73523 | 85.38526 | 5016 ft | 152 kts | 230° |
| 2026-05-08 09:12 | 27.72859 | 85.37627 | 4908 ft | 147 kts | 223° |
| 2026-05-08 09:12 | 27.71984 | 85.36954 | 4656 ft | 160 kts | 205° |
| 2026-05-08 09:12 | 27.70959 | 85.36510 | 4455 ft | 155 kts | 201° |
| 2026-05-08 09:12 | 27.70035 | 85.36088 | 4394 ft | 119 kts | 201° |
| 2026-05-08 09:13 | 27.69537 | 85.35860 | 4396 ft | 27 kts | 202° |
| 2026-05-08 09:13 | 27.69466 | 85.35778 | 4396 ft | 9 kts | 287° |
| 2026-05-08 09:13 | 27.69516 | 85.35739 | 4395 ft | 10 kts | 5° |
| 2026-05-08 09:13 | 27.69562 | 85.35754 | 4395 ft | 11 kts | 21° |
| 2026-05-08 09:14 | 27.69635 | 85.35787 | 4395 ft | 12 kts | 22° |
| 2026-05-08 09:14 | 27.69687 | 85.35811 | 4394 ft | 2 kts | 23° |
| 2026-05-08 09:14 | 27.69700 | 85.35817 | 4394 ft | 4 kts | 23° |
| 2026-05-08 09:14 | 27.69729 | 85.35831 | 4394 ft | 6 kts | 20° |
| 2026-05-08 09:15 | 27.69786 | 85.35855 | 4394 ft | 7 kts | 24° |
| 2026-05-08 09:15 | 27.69819 | 85.35871 | 4394 ft | 7 kts | 21° |
| 2026-05-08 09:15 | 27.69853 | 85.35854 | 4394 ft | 6 kts | 299° |
| 2026-05-08 09:15 | 27.69864 | 85.35824 | 4393 ft | 0 kts | 290° |
| 2026-05-08 09:16 | 27.69868 | 85.35811 | 4393 ft | 3 kts | 290° |
| 2026-05-08 09:16 | 27.69872 | 85.35800 | 4393 ft | 0 kts | 290° |